Time;durP1;ratioP1;P1;durP2;ratioP2;P2;SDS_P1;SDS_P2;PMS_P1;PMS_P2;Temp;Humidity;BMP_temperature;BMP_pressure;BME280_temperature;BME280_humidity;BME280_pressure;Samples;Min_cycle;Max_cycle;Signal;HPM_P1;HPM_P2
2023/11/13 00:02:06;;;;;;;25.57;12.50;;;;;;;7.11;100.00;100281.38;124001;1112;104682;-78
2023/11/13 00:04:37;;;;;;;24.73;12.30;;;;;;;7.12;100.00;100285.75;125205;1099;108879;-76
2023/11/13 00:07:09;;;;;;;24.70;12.13;;;;;;;7.13;100.00;100280.61;124764;1109;104251;-76
2023/11/13 00:09:40;;;;;;;24.23;12.00;;;;;;;7.13;100.00;100277.12;124042;1109;104332;-76
2023/11/13 00:12:12;;;;;;;24.93;12.53;;;;;;;7.05;100.00;100284.59;124182;1109;104133;-76
2023/11/13 00:17:20;;;;;;;26.57;13.27;;;;;;;6.97;100.00;100279.02;124619;1111;104197;-77
2023/11/13 00:19:51;;;;;;;24.37;11.83;;;;;;;6.93;100.00;100290.11;125063;1108;102016;-75
2023/11/13 00:22:23;;;;;;;24.10;12.90;;;;;;;6.92;100.00;100283.13;125058;1097;104237;-78
2023/11/13 00:24:55;;;;;;;25.17;12.87;;;;;;;6.94;100.00;100283.20;124425;1099;104553;-77
2023/11/13 00:27:26;;;;;;;25.60;13.23;;;;;;;6.87;100.00;100289.83;125408;1099;102813;-76
2023/11/13 00:32:46;;;;;;;27.00;13.60;;;;;;;6.68;100.00;100288.06;124054;1112;104194;-76
2023/11/13 00:35:18;;;;;;;26.00;13.87;;;;;;;6.62;100.00;100282.56;124641;1099;119011;-76
2023/11/13 00:37:49;;;;;;;27.37;13.83;;;;;;;6.56;100.00;100277.05;124258;1112;104395;-77
2023/11/13 00:42:54;;;;;;;26.80;13.60;;;;;;;6.53;100.00;100285.63;124674;1111;104194;-77
2023/11/13 00:45:26;;;;;;;24.40;12.55;;;;;;;6.54;100.00;100290.01;123698;1112;104271;-77
2023/11/13 00:47:57;;;;;;;27.00;13.80;;;;;;;6.57;100.00;100289.27;123434;1109;104270;-78
2023/11/13 00:50:28;;;;;;;26.03;13.10;;;;;;;6.59;100.00;100296.36;123385;1109;104351;-79
2023/11/13 00:53:00;;;;;;;24.60;12.75;;;;;;;6.62;100.00;100287.77;123012;1109;104313;-78
2023/11/13 00:55:31;;;;;;;27.90;13.60;;;;;;;6.65;100.00;100298.35;123257;1109;104374;-77
2023/11/13 00:58:04;;;;;;;24.17;12.90;;;;;;;6.61;100.00;100293.83;123731;1109;104296;-78
2023/11/13 01:03:32;;;;;;;27.77;14.53;;;;;;;6.55;100.00;100301.35;125881;1099;102357;-75
2023/11/13 01:06:04;;;;;;;30.13;14.97;;;;;;;6.53;100.00;100293.45;125869;1100;101602;-75
2023/11/13 01:08:35;;;;;;;28.07;14.30;;;;;;;6.54;100.00;100294.34;124957;1109;102122;-77
2023/11/13 01:11:07;;;;;;;28.07;14.57;;;;;;;6.54;100.00;100304.77;125360;1109;101662;-77
2023/11/13 01:13:39;;;;;;;27.27;13.17;;;;;;;6.54;100.00;100309.98;126334;1099;102655;-77
2023/11/13 01:19:13;;;;;;;25.27;13.47;;;;;;;6.45;100.00;100313.02;125473;1099;104188;-76
2023/11/13 01:21:44;;;;;;;27.53;13.93;;;;;;;6.41;100.00;100321.53;124986;1102;104191;-79
2023/11/13 01:24:16;;;;;;;28.23;14.87;;;;;;;6.39;100.00;100316.23;124076;1109;104286;-77
2023/11/13 01:26:47;;;;;;;29.80;15.07;;;;;;;6.41;100.00;100317.20;125040;1109;102147;-77
2023/11/13 01:29:19;;;;;;;27.43;14.13;;;;;;;6.42;100.00;100319.00;125099;1103;102735;-77
2023/11/13 01:31:55;;;;;;;27.57;14.40;;;;;;;6.48;100.00;100321.91;125438;1099;104091;-76
2023/11/13 01:34:26;;;;;;;28.80;14.47;;;;;;;6.51;100.00;100322.86;125590;1099;102357;-79
2023/11/13 01:36:58;;;;;;;25.57;14.23;;;;;;;6.55;100.00;100322.20;124727;1099;104208;-78
2023/11/13 01:39:30;;;;;;;28.47;14.87;;;;;;;6.59;100.00;100316.30;125110;1099;102385;-77
2023/11/13 01:42:01;;;;;;;27.13;14.33;;;;;;;6.63;100.00;100311.31;125224;1103;104319;-75
2023/11/13 01:44:43;;;;;;;27.13;14.10;;;;;;;6.67;100.00;100317.59;125995;1099;102942;-77
2023/11/13 01:47:15;;;;;;;26.33;13.87;;;;;;;6.70;100.00;100316.83;124768;1102;102485;-76
2023/11/13 01:49:47;;;;;;;26.77;13.73;;;;;;;6.66;100.00;100314.07;124531;1112;101917;-77
2023/11/13 01:52:29;;;;;;;26.20;13.17;;;;;;;6.65;100.00;100319.20;124365;1109;104779;31
2023/11/13 01:55:02;;;;;;;28.90;14.10;;;;;;;6.65;100.00;100324.42;124660;1112;102230;-77
2023/11/13 01:57:35;;;;;;;26.50;13.75;;;;;;;6.67;100.00;100328.02;125063;1101;103859;-77
2023/11/13 02:00:10;;;;;;;28.07;13.57;;;;;;;6.66;100.00;100331.44;124193;1112;102199;-77
2023/11/13 02:02:48;;;;;;;27.23;13.70;;;;;;;6.63;100.00;100334.78;124196;1111;104414;-77
2023/11/13 02:05:21;;;;;;;29.27;14.00;;;;;;;6.64;100.00;100343.52;124797;1112;104188;-77
2023/11/13 02:07:54;;;;;;;27.57;14.00;;;;;;;6.65;100.00;100346.20;123875;1111;104545;-76
2023/11/13 02:10:27;;;;;;;27.10;13.87;;;;;;;6.65;100.00;100345.28;124007;1112;104274;-76
2023/11/13 02:13:00;;;;;;;28.33;14.30;;;;;;;6.66;100.00;100345.36;123577;1112;104300;-76
2023/11/13 02:15:32;;;;;;;25.67;13.40;;;;;;;6.68;100.00;100355.86;123658;1112;104303;-77
2023/11/13 02:18:05;;;;;;;25.87;13.57;;;;;;;6.70;100.00;100355.94;123406;1112;104325;-78
2023/11/13 02:20:36;;;;;;;26.63;13.53;;;;;;;6.68;100.00;100353.25;123320;1111;104242;-78
2023/11/13 02:23:09;;;;;;;27.47;14.53;;;;;;;6.68;100.00;100352.37;123316;1112;104366;-78
2023/11/13 02:25:42;;;;;;;23.57;12.47;;;;;;;6.66;100.00;100353.18;122951;1112;104334;-78
2023/11/13 02:28:14;;;;;;;27.37;13.77;;;;;;;6.68;100.00;100357.59;123119;1112;104396;-78
2023/11/13 02:30:45;;;;;;;28.57;13.77;;;;;;;6.67;100.00;100356.70;123092;1112;104384;-78
2023/11/13 02:33:17;;;;;;;25.93;13.03;;;;;;;6.68;100.00;100360.20;123097;1112;104399;-78
2023/11/13 02:35:49;;;;;;;24.20;13.27;;;;;;;6.68;100.00;100362.80;123172;1112;104679;-78
2023/11/13 02:38:20;;;;;;;28.05;13.70;;;;;;;6.65;100.00;100372.27;123092;1112;104268;-78
2023/11/13 02:40:52;;;;;;;26.63;13.50;;;;;;;6.64;100.00;100380.02;123134;1112;104199;-77
2023/11/13 02:43:23;;;;;;;26.20;14.10;;;;;;;6.63;100.00;100383.44;123201;1111;104310;-77
2023/11/13 02:45:55;;;;;;;26.25;13.75;;;;;;;6.63;100.00;100388.65;123158;1111;104386;-78
2023/11/13 02:48:26;;;;;;;27.03;12.87;;;;;;;6.61;100.00;100390.30;123403;1112;104332;-78
2023/11/13 02:50:57;;;;;;;26.77;13.40;;;;;;;6.64;100.00;100395.66;123567;1112;104290;-77
2023/11/13 02:53:29;;;;;;;24.87;13.30;;;;;;;6.64;100.00;100400.88;123533;1112;104267;-78
2023/11/13 02:56:01;;;;;;;24.73;12.97;;;;;;;6.65;100.00;100405.25;123385;1112;102249;-78
2023/11/13 02:58:33;;;;;;;27.43;13.53;;;;;;;6.63;100.00;100407.78;123230;1112;104670;-78
2023/11/13 03:01:04;;;;;;;25.90;13.77;;;;;;;6.66;100.00;100414.88;123395;1112;104274;-78
2023/11/13 03:03:38;;;;;;;26.75;13.45;;;;;;;6.65;100.00;100415.69;123251;1112;104268;-78
2023/11/13 03:06:10;;;;;;;26.42;14.10;;;;;;;6.63;100.00;100414.72;123101;1111;104258;-78
2023/11/13 03:08:45;;;;;;;27.73;13.90;;;;;;;6.62;100.00;100420.74;123279;1112;104357;-78
2023/11/13 03:11:17;;;;;;;26.33;14.33;;;;;;;6.60;100.00;100428.48;122979;1112;104652;-78
2023/11/13 03:13:49;;;;;;;28.87;15.33;;;;;;;6.58;100.00;100434.47;122967;1112;104294;-78
2023/11/13 03:16:20;;;;;;;30.70;15.67;;;;;;;6.55;100.00;100426.48;122895;1112;104299;-80
2023/11/13 03:18:52;;;;;;;29.50;15.23;;;;;;;6.53;100.00;100435.92;123261;1112;104245;-78
2023/11/13 03:21:24;;;;;;;27.73;14.30;;;;;;;6.53;100.00;100434.23;124306;1112;104223;-78
2023/11/13 03:23:56;;;;;;;28.67;15.33;;;;;;;6.51;100.00;100441.05;124461;1111;104290;-78
2023/11/13 03:26:28;;;;;;;29.33;15.30;;;;;;;6.51;100.00;100438.45;124350;1112;104242;-78
2023/11/13 03:29:00;;;;;;;28.10;14.97;;;;;;;6.53;100.00;100433.31;124973;1111;104203;-78
2023/11/13 03:31:32;;;;;;;29.25;15.25;;;;;;;6.56;100.00;100436.08;124986;1112;104128;-78
2023/11/13 03:36:44;;;;;;;26.80;14.20;;;;;;;6.60;100.00;100440.64;124914;1110;104213;-76
2023/11/13 03:39:17;;;;;;;29.30;15.23;;;;;;;6.61;100.00;100456.36;124013;1112;102252;-78
2023/11/13 03:41:48;;;;;;;27.23;14.57;;;;;;;6.60;100.00;100445.86;123232;1112;104374;-78
2023/11/13 03:44:20;;;;;;;28.40;15.07;;;;;;;6.58;100.00;100447.50;123102;1112;104289;-78
2023/11/13 03:46:52;;;;;;;29.83;15.63;;;;;;;6.58;100.00;100450.11;123245;1112;104329;-78
2023/11/13 03:49:23;;;;;;;30.63;15.47;;;;;;;6.57;100.00;100458.73;123119;1112;104267;-78
2023/11/13 03:51:55;;;;;;;28.80;15.70;;;;;;;6.56;100.00;100459.54;123039;1112;104466;-77
2023/11/13 03:54:27;;;;;;;27.75;14.85;;;;;;;6.55;100.00;100462.98;123008;1112;104300;-77
2023/11/13 03:56:58;;;;;;;30.40;15.57;;;;;;;6.56;100.00;100467.36;123339;1112;104408;-78
2023/11/13 03:59:31;;;;;;;27.75;14.75;;;;;;;6.56;100.00;100464.75;124639;1109;104179;-77
2023/11/13 04:02:02;;;;;;;25.27;14.17;;;;;;;6.52;100.00;100463.71;123685;1109;104332;-78
2023/11/13 04:04:34;;;;;;;30.57;14.57;;;;;;;6.50;100.00;100467.05;123665;1109;104207;-78
2023/11/13 04:07:05;;;;;;;30.83;15.33;;;;;;;6.50;100.00;100465.36;123216;1109;104249;-78
2023/11/13 04:09:37;;;;;;;27.53;14.83;;;;;;;6.43;100.00;100461.52;123578;1108;104233;-78
2023/11/13 04:12:10;;;;;;;25.83;14.60;;;;;;;6.42;100.00;100464.05;124704;1109;104271;-77
2023/11/13 04:14:41;;;;;;;28.03;14.67;;;;;;;6.39;100.00;100461.28;124749;1109;104309;-78
2023/11/13 04:17:14;;;;;;;26.03;14.53;;;;;;;6.39;100.00;100464.80;124740;1109;104268;-78
2023/11/13 04:19:46;;;;;;;;;;;;;;;6.39;100.00;100467.41;124544;1109;104192;-78
2023/11/13 04:22:18;;;;;;;26.23;13.67;;;;;;;6.40;100.00;100470.89;124426;1109;102240;-77
2023/11/13 04:24:49;;;;;;;30.43;14.53;;;;;;;6.40;100.00;100471.78;124368;1109;102083;-77
2023/11/13 04:27:21;;;;;;;26.70;13.93;;;;;;;6.40;100.00;100463.08;124696;1109;104421;-77
2023/11/13 04:29:52;;;;;;;26.83;14.20;;;;;;;6.41;100.00;100465.77;125179;1108;102094;-78
2023/11/13 04:32:24;;;;;;;28.70;14.63;;;;;;;6.42;100.00;100472.78;125273;1108;104270;-78
2023/11/13 05:37:54;;;;;;;30.10;14.80;;;;;;;6.28;100.00;100534.60;125920;1102;102028;-76
2023/11/13 05:40:26;;;;;;;38.23;17.20;;;;;;;6.29;100.00;100539.02;125402;1104;104248;-77
2023/11/13 05:42:58;;;;;;;33.80;17.10;;;;;;;6.32;100.00;100539.98;125183;1105;104103;-77
2023/11/13 05:45:29;;;;;;;33.97;17.93;;;;;;;6.27;100.00;100547.55;125159;1103;104249;-77
2023/11/13 05:48:01;;;;;;;31.00;17.00;;;;;;;6.25;100.00;100551.80;126287;1095;102632;-77
2023/11/13 05:50:43;;;;;;;29.17;16.67;;;;;;;6.25;100.00;100550.07;126164;1096;104105;31
2023/11/13 05:53:15;;;;;;;30.80;15.90;;;;;;;6.29;100.00;100549.44;125647;1099;103167;-76
2023/11/13 05:55:47;;;;;;;29.70;16.57;;;;;;;6.35;100.00;100548.84;124684;1109;104210;-76
2023/11/13 05:58:18;;;;;;;28.77;16.77;;;;;;;6.37;100.00;100554.14;124258;1109;118731;-77
2023/11/13 06:00:50;;;;;;;33.33;15.73;;;;;;;6.40;100.00;100551.70;124472;1105;104296;-77
2023/11/13 06:03:22;;;;;;;29.83;16.87;;;;;;;6.42;100.00;100560.48;124189;1109;104812;-79
2023/11/13 06:05:53;;;;;;;31.40;16.77;;;;;;;6.46;100.00;100552.91;125248;1100;102898;-77
2023/11/13 06:08:25;;;;;;;33.20;18.00;;;;;;;6.53;100.00;100561.06;124987;1105;104355;-78
2023/11/13 06:11:00;;;;;;;35.30;17.77;;;;;;;6.57;100.00;100549.98;125134;1108;102502;-77
2023/11/13 06:13:32;;;;;;;34.47;17.90;;;;;;;6.63;100.00;100555.52;125399;1096;104507;-76
2023/11/13 06:16:09;;;;;;;32.37;16.57;;;;;;;6.69;100.00;100557.56;125609;1096;102966;-76
2023/11/13 06:18:59;;;;;;;31.47;17.20;;;;;;;6.76;100.00;100555.36;124265;1108;109297;-76
2023/11/13 06:21:33;;;;;;;34.77;17.20;;;;;;;6.87;100.00;100560.22;124565;1109;102095;-76
2023/11/13 06:24:05;;;;;;;35.50;18.70;;;;;;;6.99;100.00;100560.84;124678;1105;104178;-79
2023/11/13 06:26:36;;;;;;;35.43;17.40;;;;;;;7.11;100.00;100565.80;124517;1106;104411;-78
2023/11/13 06:29:13;;;;;;;30.03;16.67;;;;;;;7.16;100.00;100559.98;124225;1106;104357;-77
2023/11/13 06:31:45;;;;;;;28.20;15.03;;;;;;;7.25;100.00;100570.00;124018;1106;104281;-78
2023/11/13 06:34:18;;;;;;;27.53;15.20;;;;;;;7.27;100.00;100578.79;124287;1105;102735;-79
2023/11/13 06:36:50;;;;;;;29.83;15.47;;;;;;;7.27;100.00;100580.52;124565;1109;104319;-77
2023/11/13 06:39:34;;;;;;;28.95;14.30;;;;;;;7.30;100.00;100578.06;124067;1109;104276;-77
2023/11/13 06:42:08;;;;;;;28.87;14.50;;;;;;;7.40;100.00;100582.89;124377;1109;104236;-79
2023/11/13 06:44:44;;;;;;;28.50;14.40;;;;;;;7.49;100.00;100582.47;124147;1109;104147;-78
2023/11/13 06:47:16;;;;;;;31.67;14.70;;;;;;;7.54;100.00;100584.50;123924;1108;104258;-79
2023/11/13 06:49:47;;;;;;;29.60;14.27;;;;;;;7.56;100.00;100585.46;124327;1105;103443;-78
2023/11/13 06:52:21;;;;;;;30.30;14.60;;;;;;;7.59;100.00;100586.42;124267;1109;104264;-83
2023/11/13 06:54:58;;;;;;;28.53;14.03;;;;;;;7.61;100.00;100574.36;124244;1105;102255;-77
2023/11/13 06:57:29;;;;;;;26.57;14.13;;;;;;;7.63;100.00;100577.92;124413;1105;104332;-76
2023/11/13 07:00:01;;;;;;;23.33;12.20;;;;;;;7.64;100.00;100574.51;124214;1109;102587;-79
2023/11/13 07:02:33;;;;;;;23.97;12.30;;;;;;;7.68;100.00;100568.59;124070;1105;103394;-79
2023/11/13 07:05:06;;;;;;;24.30;12.10;;;;;;;7.74;100.00;100569.80;124023;1109;104248;-78
2023/11/13 07:07:37;;;;;;;23.90;10.73;;;;;;;7.85;100.00;100586.00;124030;1109;102727;-79
2023/11/13 07:10:12;;;;;;;20.20;8.50;;;;;;;7.90;100.00;100580.98;124391;1105;104267;-79
2023/11/13 07:12:45;;;;;;;15.43;7.27;;;;;;;7.98;100.00;100581.32;124234;1105;104258;-83
2023/11/13 07:15:19;;;;;;;14.27;6.47;;;;;;;8.04;100.00;100576.39;124503;1104;104245;-79
2023/11/13 07:17:54;;;;;;;15.65;6.90;;;;;;;8.10;100.00;100593.27;124860;1105;104291;-79
2023/11/13 07:20:26;;;;;;;13.60;6.95;;;;;;;8.17;100.00;100581.38;124598;1105;102214;-80
2023/11/13 07:23:05;;;;;;;14.80;7.30;;;;;;;8.25;100.00;100582.62;124275;1105;102929;-80
2023/11/13 07:25:45;;;;;;;11.77;5.83;;;;;;;8.31;100.00;100584.63;125194;1105;102816;-79
2023/11/13 07:28:19;;;;;;;13.17;5.40;;;;;;;8.39;100.00;100588.48;124263;1105;104473;-78
2023/11/13 07:30:52;;;;;;;;;;;;;;;8.45;100.00;100587.92;124027;1105;104192;-78
2023/11/13 07:33:23;;;;;;;9.90;4.80;;;;;;;8.44;100.00;100578.27;124180;1105;104380;-79
2023/11/13 07:35:55;;;;;;;10.15;4.65;;;;;;;8.44;100.00;100580.89;124786;1105;103150;-78
2023/11/13 07:38:29;;;;;;;10.50;4.83;;;;;;;8.49;100.00;100570.64;124307;1104;104159;-76
2023/11/13 07:41:03;;;;;;;11.83;4.87;;;;;;;8.53;100.00;100562.11;124234;1105;102891;-79
2023/11/13 07:43:36;;;;;;;11.73;5.10;;;;;;;8.60;100.00;100567.69;124418;1105;104227;-78
2023/11/13 07:46:08;;;;;;;13.70;5.23;;;;;;;8.67;100.00;100565.34;124391;1106;102429;-76
2023/11/13 07:48:41;;;;;;;10.03;4.97;;;;;;;8.74;100.00;100567.39;124301;1105;102591;-80
2023/11/13 07:51:17;;;;;;;11.53;4.80;;;;;;;8.83;100.00;100575.64;124540;1105;102911;-82
2023/11/13 07:54:00;;;;;;;17.17;6.13;;;;;;;8.93;100.00;100570.00;125462;1105;102737;-79
2023/11/13 07:56:35;;;;;;;10.27;5.13;;;;;;;9.05;100.00;100572.23;125560;1105;104335;-80
2023/11/13 07:59:11;;;;;;;8.27;4.10;;;;;;;9.15;100.00;100560.45;124958;1105;104245;-79
2023/11/13 08:01:43;;;;;;;8.70;4.10;;;;;;;9.26;100.00;100559.17;124384;1105;104175;-79
2023/11/13 08:04:29;;;;;;;9.10;4.40;;;;;;;9.35;100.00;100554.31;124460;1105;102218;-78
2023/11/13 08:07:01;;;;;;;6.43;3.97;;;;;;;9.45;100.00;100560.81;124232;1105;104243;-78
2023/11/13 08:09:33;;;;;;;6.27;3.70;;;;;;;9.50;100.00;100563.63;124413;1105;102355;-79
2023/11/13 08:12:05;;;;;;;6.57;3.50;;;;;;;9.59;100.00;100560.50;125819;1105;102090;-77
2023/11/13 08:14:38;;;;;;;6.50;3.67;;;;;;;9.65;100.00;100564.25;125794;1104;102406;-76
2023/11/13 08:17:12;;;;;;;5.90;3.40;;;;;;;9.76;100.00;100569.05;125817;1105;102597;-74
2023/11/13 08:19:43;;;;;;;4.47;3.10;;;;;;;9.84;100.00;100564.99;124417;1104;104258;-77
2023/11/13 08:22:15;;;;;;;6.43;3.40;;;;;;;9.97;100.00;100559.41;124176;1106;103157;-78
2023/11/13 08:24:51;;;;;;;4.00;2.90;;;;;;;10.08;100.00;100563.34;124242;1105;102177;-76
2023/11/13 08:27:23;;;;;;;5.03;3.25;;;;;;;10.16;100.00;100560.09;124354;1105;104232;-78
2023/11/13 08:29:55;;;;;;;7.10;3.17;;;;;;;10.17;100.00;100564.52;124432;1105;104313;-76
2023/11/13 08:32:27;;;;;;;5.53;3.30;;;;;;;10.16;100.00;100562.72;124446;1105;104352;-77
2023/11/13 08:34:59;;;;;;;4.03;2.87;;;;;;;10.21;99.42;100564.69;124212;1105;104265;-76
2023/11/13 08:37:32;;;;;;;5.87;3.23;;;;;;;10.34;100.00;100560.83;125337;1105;104235;-77
2023/11/13 08:40:24;;;;;;;5.70;3.30;;;;;;;10.47;100.00;100563.91;124438;1105;104256;-78
2023/11/13 08:43:10;;;;;;;9.03;4.10;;;;;;;10.57;100.00;100560.80;124644;1105;102218;-77
2023/11/13 08:45:44;;;;;;;4.77;2.93;;;;;;;10.70;100.00;100563.02;125348;1104;102119;-80
2023/11/13 08:48:16;;;;;;;4.70;3.07;;;;;;;10.81;100.00;100555.53;125223;1104;102626;-77
2023/11/13 08:50:48;;;;;;;3.77;2.73;;;;;;;10.90;100.00;100549.72;124364;1105;104366;-77
2023/11/13 08:53:38;;;;;;;6.83;2.87;;;;;;;10.99;99.82;100547.42;124365;1105;104252;-81
2023/11/13 08:56:15;;;;;;;4.40;2.80;;;;;;;11.09;99.16;100551.25;124311;1105;104306;-77
2023/11/13 08:58:47;;;;;;;4.33;2.70;;;;;;;11.12;98.60;100551.35;124467;1105;104654;-79
2023/11/13 09:01:25;;;;;;;4.67;2.80;;;;;;;11.20;98.55;100554.23;124501;1105;102873;-78
2023/11/13 09:03:59;;;;;;;3.75;2.90;;;;;;;11.31;98.37;100552.86;124466;1104;104220;-76
2023/11/13 09:06:35;;;;;;;3.47;2.23;;;;;;;11.41;97.84;100556.71;124268;1105;104254;-79
2023/11/13 09:09:12;;;;;;;4.90;2.73;;;;;;;11.44;97.04;100546.30;124378;1105;104355;-79
2023/11/13 09:11:46;;;;;;;3.63;2.40;;;;;;;11.47;96.55;100538.52;126109;1105;102540;-81
2023/11/13 09:14:25;;;;;;;4.67;2.60;;;;;;;11.47;95.88;100547.28;125911;1105;102738;-78
2023/11/13 09:16:58;;;;;;;3.33;2.40;;;;;;;11.51;96.05;100529.88;125782;1105;102216;-77
2023/11/13 09:19:42;;;;;;;3.07;2.10;;;;;;;11.61;96.71;100531.05;125965;1105;102962;-79
2023/11/13 09:22:26;;;;;;;2.87;2.23;;;;;;;11.64;95.88;100521.55;125894;1105;102208;-81
2023/11/13 09:25:04;;;;;;;3.12;2.40;;;;;;;11.59;94.71;100527.49;126039;1104;102598;-77
2023/11/13 09:27:36;;;;;;;2.73;2.23;;;;;;;11.57;95.51;100531.81;126178;1103;101855;-80
2023/11/13 09:30:14;;;;;;;2.73;2.50;;;;;;;11.56;94.69;100524.77;126131;1104;102803;-77
2023/11/13 09:32:50;;;;;;;4.73;2.60;;;;;;;11.59;94.86;100528.37;125766;1105;108877;-78
2023/11/13 09:35:23;;;;;;;;;;;;;;;11.66;94.28;100518.97;125239;1105;102547;-79
2023/11/13 09:38:01;;;;;;;4.33;2.77;;;;;;;11.77;94.89;100516.68;124463;1105;104396;-78
2023/11/13 09:40:39;;;;;;;4.67;2.63;;;;;;;11.85;95.08;100515.17;125180;1105;101836;-81
2023/11/13 09:43:33;;;;;;;6.07;2.90;;;;;;;11.88;95.10;100510.89;125265;1104;102195;-76
2023/11/13 09:46:09;;;;;;;3.50;2.40;;;;;;;11.86;94.81;100502.07;125431;1105;104249;-79
2023/11/13 09:48:48;;;;;;;3.10;2.30;;;;;;;11.82;94.67;100497.55;125325;1105;104174;-78
2023/11/13 09:55:02;;;;;;;3.83;2.70;;;;;;;11.78;93.97;100482.55;124700;1103;104195;-80
2023/11/13 09:57:39;;;;;;;4.20;2.77;;;;;;;11.78;93.75;100489.53;124588;1105;104216;-80
2023/11/13 10:00:23;;;;;;;6.03;2.60;;;;;;;11.80;93.04;100485.23;125447;1104;104261;-83
2023/11/13 10:02:58;;;;;;;5.20;2.80;;;;;;;11.76;92.63;100484.22;124594;1105;104195;-77
2023/11/13 10:05:30;;;;;;;5.90;2.67;;;;;;;11.79;92.64;100479.05;124645;1105;104237;-80
2023/11/13 10:08:02;;;;;;;3.60;2.40;;;;;;;11.82;92.47;100473.89;124623;1105;104150;-80
2023/11/13 10:10:39;;;;;;;2.47;2.13;;;;;;;11.84;90.94;100472.22;124803;1105;103250;-79
2023/11/13 10:13:18;;;;;;;2.90;2.23;;;;;;;11.86;91.55;100469.64;124736;1105;102286;-81
2023/11/13 10:15:49;;;;;;;3.20;2.13;;;;;;;11.87;91.29;100466.14;124734;1106;102751;-80
2023/11/13 10:18:28;;;;;;;5.23;2.90;;;;;;;11.84;90.56;100468.68;124728;1105;103187;-80
2023/11/13 10:21:01;;;;;;;5.33;2.40;;;;;;;11.78;90.41;100460.61;124675;1105;102329;-79
2023/11/13 10:23:44;;;;;;;3.63;2.23;;;;;;;11.79;90.23;100459.77;124718;1104;102177;-80
2023/11/13 10:26:26;;;;;;;3.53;2.20;;;;;;;11.79;90.22;100451.89;124589;1105;104204;-80
2023/11/13 10:28:58;;;;;;;5.03;2.23;;;;;;;11.81;90.29;100452.81;124821;1104;104283;-81
2023/11/13 10:31:45;;;;;;;3.00;2.10;;;;;;;11.81;90.31;100451.09;125367;1105;104350;-84
2023/11/13 10:34:18;;;;;;;2.17;1.97;;;;;;;11.78;89.30;100445.75;125735;1105;108627;-81
2023/11/13 10:37:15;;;;;;;2.50;2.03;;;;;;;11.75;89.11;100445.66;125879;1104;101928;-80
2023/11/13 10:39:49;;;;;;;3.40;2.30;;;;;;;11.77;88.78;100443.08;125379;1105;103431;-78
2023/11/13 10:42:23;;;;;;;2.33;2.08;;;;;;;11.80;89.29;100436.16;125385;1105;103187;-81
2023/11/13 10:44:57;;;;;;;3.10;2.30;;;;;;;11.81;88.73;100429.16;125462;1105;103906;-78
2023/11/13 10:47:35;;;;;;;2.97;1.90;;;;;;;11.81;88.78;100432.70;125225;1105;104320;-80
2023/11/13 10:50:18;;;;;;;2.80;1.97;;;;;;;11.79;88.63;100426.48;125447;1105;102904;-79
2023/11/13 10:52:54;;;;;;;2.20;1.80;;;;;;;11.79;88.24;100425.59;124718;1105;104207;-80
2023/11/13 10:55:29;;;;;;;2.80;2.15;;;;;;;11.78;88.40;100427.34;124815;1105;104258;-80
2023/11/13 10:58:00;;;;;;;4.00;2.30;;;;;;;11.80;88.08;100417.76;124628;1105;102975;-78
2023/11/13 11:00:34;;;;;;;3.07;2.40;;;;;;;11.80;87.97;100423.02;124619;1105;104229;-76
2023/11/13 11:03:17;;;;;;;2.42;1.80;;;;;;;11.78;87.49;100414.20;124616;1105;103032;-79
2023/11/13 11:06:12;;;;;;;2.40;2.00;;;;;;;11.79;87.57;100405.45;124758;1105;103450;-77
2023/11/13 11:08:50;;;;;;;4.97;2.10;;;;;;;11.82;87.20;100405.53;124658;1105;102025;-77
2023/11/13 11:11:26;;;;;;;3.03;2.10;;;;;;;11.88;87.17;100402.20;124673;1105;103177;-77
2023/11/13 11:14:10;;;;;;;5.23;2.80;;;;;;;11.90;86.86;100399.63;124725;1105;102595;-78
2023/11/13 11:16:45;;;;;;;5.93;2.50;;;;;;;11.91;86.21;100394.41;124909;1106;102793;-78
2023/11/13 11:19:29;;;;;;;4.07;2.60;;;;;;;11.82;84.68;100388.88;124767;1102;104230;-78
2023/11/13 11:22:06;;;;;;;3.87;2.40;;;;;;;11.76;85.28;100386.95;124932;1105;101859;-78
2023/11/13 11:25:19;;;;;;;2.90;2.57;;;;;;;11.72;85.39;100387.73;124740;1102;104352;-77
2023/11/13 11:27:52;;;;;;;4.53;2.40;;;;;;;11.64;85.20;100378.71;124850;1105;102017;-80
2023/11/13 11:30:36;;;;;;;5.43;2.60;;;;;;;11.58;84.48;100379.44;124924;1102;102746;-79
2023/11/13 11:33:09;;;;;;;4.17;2.33;;;;;;;11.51;83.78;100377.47;125006;1102;104233;-79
2023/11/13 11:35:44;;;;;;;5.95;2.20;;;;;;;11.41;83.42;100378.94;124769;1102;102107;-80
2023/11/13 11:38:26;;;;;;;2.50;2.07;;;;;;;11.36;83.70;100383.16;124701;1105;104235;-81
2023/11/13 11:41:24;;;;;;;3.20;2.13;;;;;;;11.30;83.41;100372.47;125285;1105;102600;-80
2023/11/13 11:43:58;;;;;;;2.70;2.00;;;;;;;11.22;83.57;100384.45;125351;1105;106077;-81
2023/11/13 11:46:46;;;;;;;3.53;2.33;;;;;;;11.18;83.32;100385.22;125389;1105;103080;-81
2023/11/13 11:49:25;;;;;;;4.40;2.60;;;;;;;11.12;82.74;100388.53;125456;1105;102505;-83
2023/11/13 11:52:17;;;;;;;3.97;2.53;;;;;;;11.04;83.00;100384.78;125537;1105;102658;-80
2023/11/13 11:55:14;;;;;;;7.30;2.90;;;;;;;10.98;83.14;100380.22;125370;1106;102888;-80
2023/11/13 11:57:47;;;;;;;5.37;2.83;;;;;;;10.91;82.66;100381.76;125428;1105;104147;-80
2023/11/13 12:00:34;;;;;;;6.67;3.50;;;;;;;10.85;82.15;100378.94;124907;1102;104257;-82
2023/11/13 12:03:07;;;;;;;10.03;3.57;;;;;;;10.79;82.29;100386.61;124909;1101;104255;-81
2023/11/13 12:05:40;;;;;;;8.73;3.55;;;;;;;10.78;82.41;100390.97;124811;1102;102819;-85
2023/11/13 12:08:12;;;;;;;6.53;3.27;;;;;;;10.75;82.24;100393.50;124815;1105;104195;-81
2023/11/13 12:10:59;;;;;;;7.57;3.53;;;;;;;10.71;82.17;100391.59;124837;1103;103272;-81
2023/11/13 12:13:39;;;;;;;7.47;3.00;;;;;;;10.67;81.01;100387.08;125404;1105;104188;-81
2023/11/13 12:16:18;;;;;;;6.17;3.07;;;;;;;10.62;81.97;100391.29;124996;1105;103128;-79
2023/11/13 12:18:52;;;;;;;5.90;3.30;;;;;;;10.60;82.00;100387.73;124771;1105;102457;-82
2023/11/13 12:21:26;;;;;;;5.17;2.90;;;;;;;10.58;82.11;100392.93;124865;1102;104223;-82
2023/11/13 12:24:07;;;;;;;5.60;3.00;;;;;;;10.56;81.83;100391.08;124968;1102;104214;-81
2023/11/13 12:26:41;;;;;;;5.53;3.03;;;;;;;10.56;81.27;100391.08;124805;1105;110012;-84
2023/11/13 12:29:21;;;;;;;4.90;2.80;;;;;;;10.54;81.62;100375.29;124857;1106;102563;-80
2023/11/13 12:32:05;;;;;;;6.13;2.80;;;;;;;10.56;81.94;100383.21;124732;1105;102711;-79
2023/11/13 12:34:40;;;;;;;5.17;3.20;;;;;;;10.54;80.95;100379.66;124554;1105;104173;-78
2023/11/13 12:40:06;;;;;;;5.03;2.93;;;;;;;10.51;80.94;100387.42;124447;1102;102745;-80
2023/11/13 12:42:40;;;;;;;7.77;2.83;;;;;;;10.50;80.90;100385.63;124774;1102;102820;-80
2023/11/13 12:45:15;;;;;;;6.20;3.10;;;;;;;10.46;80.26;100386.37;124650;1102;104214;-77
2023/11/13 12:47:49;;;;;;;6.50;3.08;;;;;;;10.44;80.70;100388.95;124688;1105;102902;-79
2023/11/13 12:50:24;;;;;;;5.92;2.70;;;;;;;10.45;80.71;100392.45;124776;1103;104169;-80
2023/11/13 12:52:57;;;;;;;5.67;3.00;;;;;;;10.45;80.87;100392.45;124759;1105;104265;-79
2023/11/13 12:55:32;;;;;;;4.40;3.05;;;;;;;10.42;81.12;100388.90;124696;1105;102458;-80
2023/11/13 12:58:08;;;;;;;6.73;3.30;;;;;;;10.42;81.01;100383.66;124853;1102;104124;-82
2023/11/13 13:00:43;;;;;;;5.43;3.13;;;;;;;10.43;81.10;100387.16;124827;1106;103317;-84
2023/11/13 13:03:15;;;;;;;5.17;2.70;;;;;;;10.43;80.67;100387.16;124819;1102;101931;-80